sensor_id;sensor_type;location;lat;lon;timestamp;P1;durP1;ratioP1;P2;durP2;ratioP2
5121;SDS011;2563;52.242;7.956;2023-01-28T00:01:05;6.30;;;3.53;;
5121;SDS011;2563;52.242;7.956;2023-01-28T00:03:32;6.93;;;3.40;;
5121;SDS011;2563;52.242;7.956;2023-01-28T00:06:04;6.80;;;3.30;;
5121;SDS011;2563;52.242;7.956;2023-01-28T00:08:32;7.30;;;3.47;;
5121;SDS011;2563;52.242;7.956;2023-01-28T00:10:58;6.97;;;3.37;;
5121;SDS011;2563;52.242;7.956;2023-01-28T00:13:25;6.80;;;3.17;;
5121;SDS011;2563;52.242;7.956;2023-01-28T00:16:08;6.27;;;3.43;;
5121;SDS011;2563;52.242;7.956;2023-01-28T00:18:34;5.67;;;2.80;;
5121;SDS011;2563;52.242;7.956;2023-01-28T00:21:01;10.73;;;3.90;;
5121;SDS011;2563;52.242;7.956;2023-01-28T00:23:32;4.60;;;2.70;;
5121;SDS011;2563;52.242;7.956;2023-01-28T00:25:59;6.00;;;2.93;;
5121;SDS011;2563;52.242;7.956;2023-01-28T00:28:25;7.13;;;3.57;;
5121;SDS011;2563;52.242;7.956;2023-01-28T00:30:51;5.57;;;3.20;;
5121;SDS011;2563;52.242;7.956;2023-01-28T00:33:16;7.77;;;3.40;;
5121;SDS011;2563;52.242;7.956;2023-01-28T00:35:41;5.23;;;3.10;;
5121;SDS011;2563;52.242;7.956;2023-01-28T00:38:07;5.17;;;2.87;;
5121;SDS011;2563;52.242;7.956;2023-01-28T00:40:33;5.47;;;2.73;;
5121;SDS011;2563;52.242;7.956;2023-01-28T00:42:58;5.53;;;3.00;;
5121;SDS011;2563;52.242;7.956;2023-01-28T00:45:24;5.20;;;2.80;;
5121;SDS011;2563;52.242;7.956;2023-01-28T00:47:49;6.90;;;3.10;;
5121;SDS011;2563;52.242;7.956;2023-01-28T00:50:14;5.37;;;3.23;;
5121;SDS011;2563;52.242;7.956;2023-01-28T00:52:40;4.93;;;2.90;;
5121;SDS011;2563;52.242;7.956;2023-01-28T00:55:06;5.57;;;3.00;;
5121;SDS011;2563;52.242;7.956;2023-01-28T00:57:32;4.60;;;2.50;;
5121;SDS011;2563;52.242;7.956;2023-01-28T00:59:57;8.10;;;3.20;;
5121;SDS011;2563;52.242;7.956;2023-01-28T01:02:23;6.87;;;3.17;;
5121;SDS011;2563;52.242;7.956;2023-01-28T01:04:49;7.93;;;3.37;;
5121;SDS011;2563;52.242;7.956;2023-01-28T01:07:24;5.10;;;2.83;;
5121;SDS011;2563;52.242;7.956;2023-01-28T01:10:02;5.47;;;2.73;;
5121;SDS011;2563;52.242;7.956;2023-01-28T01:12:28;5.10;;;2.57;;
5121;SDS011;2563;52.242;7.956;2023-01-28T01:14:54;8.30;;;3.27;;
5121;SDS011;2563;52.242;7.956;2023-01-28T01:17:21;7.17;;;2.83;;
5121;SDS011;2563;52.242;7.956;2023-01-28T01:19:46;6.03;;;2.87;;
5121;SDS011;2563;52.242;7.956;2023-01-28T01:22:12;5.20;;;2.70;;
5121;SDS011;2563;52.242;7.956;2023-01-28T01:24:37;5.70;;;3.10;;
5121;SDS011;2563;52.242;7.956;2023-01-28T01:27:02;6.80;;;2.97;;
5121;SDS011;2563;52.242;7.956;2023-01-28T01:29:29;6.90;;;3.97;;
5121;SDS011;2563;52.242;7.956;2023-01-28T01:31:55;6.30;;;3.20;;
5121;SDS011;2563;52.242;7.956;2023-01-28T01:34:20;9.30;;;2.97;;
5121;SDS011;2563;52.242;7.956;2023-01-28T01:36:46;7.10;;;3.30;;
5121;SDS011;2563;52.242;7.956;2023-01-28T01:39:11;6.13;;;2.87;;
5121;SDS011;2563;52.242;7.956;2023-01-28T01:41:37;5.93;;;2.80;;
5121;SDS011;2563;52.242;7.956;2023-01-28T01:44:04;4.73;;;2.70;;
5121;SDS011;2563;52.242;7.956;2023-01-28T01:49:18;8.93;;;2.90;;
5121;SDS011;2563;52.242;7.956;2023-01-28T01:51:50;6.93;;;3.30;;
5121;SDS011;2563;52.242;7.956;2023-01-28T01:54:20;7.90;;;3.60;;
5121;SDS011;2563;52.242;7.956;2023-01-28T01:56:49;7.93;;;3.40;;
5121;SDS011;2563;52.242;7.956;2023-01-28T01:59:17;4.10;;;2.50;;
5121;SDS011;2563;52.242;7.956;2023-01-28T02:01:47;5.47;;;3.30;;
5121;SDS011;2563;52.242;7.956;2023-01-28T02:04:21;9.40;;;3.00;;
5121;SDS011;2563;52.242;7.956;2023-01-28T02:06:50;6.60;;;3.40;;
5121;SDS011;2563;52.242;7.956;2023-01-28T02:09:49;5.80;;;3.40;;
5121;SDS011;2563;52.242;7.956;2023-01-28T02:12:09;6.77;;;3.20;;
5121;SDS011;2563;52.242;7.956;2023-01-28T02:14:41;5.80;;;3.23;;
5121;SDS011;2563;52.242;7.956;2023-01-28T02:17:11;9.17;;;3.33;;
5121;SDS011;2563;52.242;7.956;2023-01-28T02:19:47;11.33;;;3.33;;
5121;SDS011;2563;52.242;7.956;2023-01-28T02:28:15;6.13;;;3.13;;
5121;SDS011;2563;52.242;7.956;2023-01-28T02:30:50;8.60;;;2.83;;
5121;SDS011;2563;52.242;7.956;2023-01-28T02:38:51;6.23;;;3.27;;
5121;SDS011;2563;52.242;7.956;2023-01-28T02:41:22;7.07;;;3.50;;
5121;SDS011;2563;52.242;7.956;2023-01-28T02:43:51;7.03;;;2.77;;
5121;SDS011;2563;52.242;7.956;2023-01-28T02:46:21;5.63;;;3.07;;
5121;SDS011;2563;52.242;7.956;2023-01-28T02:49:08;7.37;;;2.80;;
5121;SDS011;2563;52.242;7.956;2023-01-28T02:55:27;10.40;;;3.00;;
5121;SDS011;2563;52.242;7.956;2023-01-28T03:00:45;4.77;;;2.60;;
5121;SDS011;2563;52.242;7.956;2023-01-28T03:05:51;6.27;;;3.47;;
5121;SDS011;2563;52.242;7.956;2023-01-28T03:08:32;7.27;;;3.10;;
5121;SDS011;2563;52.242;7.956;2023-01-28T03:11:41;5.63;;;3.20;;
5121;SDS011;2563;52.242;7.956;2023-01-28T03:14:28;7.50;;;2.90;;
5121;SDS011;2563;52.242;7.956;2023-01-28T03:17:19;6.03;;;2.80;;
5121;SDS011;2563;52.242;7.956;2023-01-28T03:20:08;7.03;;;3.07;;
5121;SDS011;2563;52.242;7.956;2023-01-28T03:22:53;5.10;;;2.77;;
5121;SDS011;2563;52.242;7.956;2023-01-28T03:25:42;5.53;;;2.80;;
5121;SDS011;2563;52.242;7.956;2023-01-28T03:28:28;7.97;;;3.00;;
5121;SDS011;2563;52.242;7.956;2023-01-28T03:31:16;6.97;;;3.53;;
5121;SDS011;2563;52.242;7.956;2023-01-28T03:34:02;7.03;;;3.60;;
5121;SDS011;2563;52.242;7.956;2023-01-28T03:36:48;6.30;;;3.37;;
5121;SDS011;2563;52.242;7.956;2023-01-28T03:39:15;6.90;;;3.43;;
5121;SDS011;2563;52.242;7.956;2023-01-28T03:44:33;6.70;;;3.20;;
5121;SDS011;2563;52.242;7.956;2023-01-28T03:47:17;6.50;;;3.67;;
5121;SDS011;2563;52.242;7.956;2023-01-28T03:49:47;4.23;;;2.73;;
5121;SDS011;2563;52.242;7.956;2023-01-28T03:52:15;6.50;;;3.87;;
5121;SDS011;2563;52.242;7.956;2023-01-28T03:54:42;9.77;;;3.13;;
5121;SDS011;2563;52.242;7.956;2023-01-28T03:57:08;7.73;;;3.00;;
5121;SDS011;2563;52.242;7.956;2023-01-28T03:59:34;7.83;;;3.80;;
5121;SDS011;2563;52.242;7.956;2023-01-28T04:01:59;5.70;;;3.17;;
5121;SDS011;2563;52.242;7.956;2023-01-28T04:04:27;6.20;;;3.20;;
5121;SDS011;2563;52.242;7.956;2023-01-28T04:06:53;8.37;;;3.40;;
5121;SDS011;2563;52.242;7.956;2023-01-28T04:09:19;6.47;;;3.10;;
5121;SDS011;2563;52.242;7.956;2023-01-28T04:11:46;7.90;;;3.73;;
5121;SDS011;2563;52.242;7.956;2023-01-28T04:14:12;6.33;;;3.30;;
5121;SDS011;2563;52.242;7.956;2023-01-28T04:16:39;7.70;;;4.33;;
5121;SDS011;2563;52.242;7.956;2023-01-28T04:19:05;8.87;;;3.90;;
5121;SDS011;2563;52.242;7.956;2023-01-28T04:21:30;8.00;;;4.37;;
5121;SDS011;2563;52.242;7.956;2023-01-28T04:23:56;9.13;;;4.70;;
5121;SDS011;2563;52.242;7.956;2023-01-28T04:26:21;9.20;;;4.70;;
5121;SDS011;2563;52.242;7.956;2023-01-28T04:28:46;6.77;;;3.97;;
5121;SDS011;2563;52.242;7.956;2023-01-28T04:31:12;11.80;;;4.57;;
5121;SDS011;2563;52.242;7.956;2023-01-28T04:33:37;8.30;;;4.50;;
5121;SDS011;2563;52.242;7.956;2023-01-28T04:36:03;8.10;;;4.03;;
5121;SDS011;2563;52.242;7.956;2023-01-28T04:38:28;7.10;;;3.37;;
5121;SDS011;2563;52.242;7.956;2023-01-28T04:40:53;9.67;;;5.20;;
5121;SDS011;2563;52.242;7.956;2023-01-28T04:43:19;7.37;;;4.17;;
5121;SDS011;2563;52.242;7.956;2023-01-28T04:45:48;7.33;;;4.07;;
5121;SDS011;2563;52.242;7.956;2023-01-28T04:48:14;7.37;;;3.90;;
5121;SDS011;2563;52.242;7.956;2023-01-28T04:50:41;9.30;;;3.83;;
5121;SDS011;2563;52.242;7.956;2023-01-28T04:53:06;10.90;;;4.10;;
5121;SDS011;2563;52.242;7.956;2023-01-28T04:55:32;7.83;;;4.10;;
5121;SDS011;2563;52.242;7.956;2023-01-28T04:57:57;7.40;;;4.20;;
5121;SDS011;2563;52.242;7.956;2023-01-28T05:00:23;9.20;;;4.63;;
5121;SDS011;2563;52.242;7.956;2023-01-28T05:02:48;9.40;;;4.37;;
5121;SDS011;2563;52.242;7.956;2023-01-28T05:05:13;6.63;;;3.90;;
5121;SDS011;2563;52.242;7.956;2023-01-28T05:07:39;6.80;;;3.80;;
5121;SDS011;2563;52.242;7.956;2023-01-28T05:10:04;7.60;;;4.07;;
5121;SDS011;2563;52.242;7.956;2023-01-28T05:12:30;8.30;;;4.40;;
5121;SDS011;2563;52.242;7.956;2023-01-28T05:14:57;9.00;;;4.90;;
5121;SDS011;2563;52.242;7.956;2023-01-28T05:17:24;8.07;;;4.57;;
5121;SDS011;2563;52.242;7.956;2023-01-28T05:19:53;8.97;;;4.33;;
5121;SDS011;2563;52.242;7.956;2023-01-28T05:22:19;9.53;;;4.43;;
5121;SDS011;2563;52.242;7.956;2023-01-28T05:24:45;8.80;;;4.73;;
5121;SDS011;2563;52.242;7.956;2023-01-28T05:27:10;9.07;;;4.43;;
5121;SDS011;2563;52.242;7.956;2023-01-28T05:29:36;8.67;;;4.60;;
5121;SDS011;2563;52.242;7.956;2023-01-28T05:32:01;7.10;;;4.10;;
5121;SDS011;2563;52.242;7.956;2023-01-28T05:34:27;16.17;;;5.50;;
5121;SDS011;2563;52.242;7.956;2023-01-28T05:36:52;9.83;;;4.87;;
5121;SDS011;2563;52.242;7.956;2023-01-28T05:39:17;9.57;;;4.80;;
5121;SDS011;2563;52.242;7.956;2023-01-28T05:41:43;11.27;;;4.77;;
5121;SDS011;2563;52.242;7.956;2023-01-28T05:44:08;7.97;;;4.80;;
5121;SDS011;2563;52.242;7.956;2023-01-28T05:46:34;6.90;;;4.00;;
5121;SDS011;2563;52.242;7.956;2023-01-28T05:48:59;10.07;;;4.33;;
5121;SDS011;2563;52.242;7.956;2023-01-28T05:51:24;10.57;;;4.60;;
5121;SDS011;2563;52.242;7.956;2023-01-28T05:53:50;8.37;;;4.70;;
5121;SDS011;2563;52.242;7.956;2023-01-28T05:56:15;10.07;;;4.50;;
5121;SDS011;2563;52.242;7.956;2023-01-28T05:58:40;9.50;;;4.23;;
5121;SDS011;2563;52.242;7.956;2023-01-28T06:01:06;9.20;;;4.90;;
5121;SDS011;2563;52.242;7.956;2023-01-28T06:03:31;10.13;;;4.80;;
5121;SDS011;2563;52.242;7.956;2023-01-28T06:05:56;8.77;;;5.13;;
5121;SDS011;2563;52.242;7.956;2023-01-28T06:08:22;9.00;;;4.77;;
5121;SDS011;2563;52.242;7.956;2023-01-28T06:10:47;10.87;;;5.43;;
5121;SDS011;2563;52.242;7.956;2023-01-28T06:13:13;11.20;;;6.00;;
5121;SDS011;2563;52.242;7.956;2023-01-28T06:15:38;12.57;;;6.33;;
5121;SDS011;2563;52.242;7.956;2023-01-28T06:18:03;11.10;;;6.10;;
5121;SDS011;2563;52.242;7.956;2023-01-28T06:20:29;11.43;;;6.10;;
5121;SDS011;2563;52.242;7.956;2023-01-28T06:22:54;13.30;;;6.80;;
5121;SDS011;2563;52.242;7.956;2023-01-28T06:25:19;15.77;;;6.40;;
5121;SDS011;2563;52.242;7.956;2023-01-28T06:27:45;10.40;;;5.43;;
5121;SDS011;2563;52.242;7.956;2023-01-28T06:30:10;12.80;;;5.50;;
5121;SDS011;2563;52.242;7.956;2023-01-28T06:32:36;12.10;;;5.60;;
5121;SDS011;2563;52.242;7.956;2023-01-28T06:35:02;11.80;;;6.70;;
5121;SDS011;2563;52.242;7.956;2023-01-28T06:37:28;11.20;;;5.97;;
5121;SDS011;2563;52.242;7.956;2023-01-28T06:39:53;9.73;;;5.47;;
5121;SDS011;2563;52.242;7.956;2023-01-28T06:42:18;12.30;;;5.87;;
5121;SDS011;2563;52.242;7.956;2023-01-28T06:44:44;11.90;;;5.70;;
5121;SDS011;2563;52.242;7.956;2023-01-28T06:47:09;13.70;;;5.63;;
5121;SDS011;2563;52.242;7.956;2023-01-28T06:49:35;11.90;;;5.50;;
5121;SDS011;2563;52.242;7.956;2023-01-28T06:52:01;13.00;;;6.10;;
5121;SDS011;2563;52.242;7.956;2023-01-28T06:54:28;11.90;;;5.97;;
5121;SDS011;2563;52.242;7.956;2023-01-28T06:56:53;11.80;;;5.30;;
5121;SDS011;2563;52.242;7.956;2023-01-28T06:59:19;10.50;;;4.70;;
5121;SDS011;2563;52.242;7.956;2023-01-28T07:01:44;10.80;;;5.50;;
5121;SDS011;2563;52.242;7.956;2023-01-28T07:04:10;13.20;;;6.20;;
5121;SDS011;2563;52.242;7.956;2023-01-28T07:06:35;14.17;;;5.73;;
5121;SDS011;2563;52.242;7.956;2023-01-28T07:09:00;14.23;;;7.23;;
5121;SDS011;2563;52.242;7.956;2023-01-28T07:11:26;14.67;;;7.50;;
5121;SDS011;2563;52.242;7.956;2023-01-28T07:13:52;11.67;;;5.70;;
5121;SDS011;2563;52.242;7.956;2023-01-28T07:16:17;10.90;;;5.80;;
5121;SDS011;2563;52.242;7.956;2023-01-28T07:18:42;13.97;;;6.23;;
5121;SDS011;2563;52.242;7.956;2023-01-28T07:21:08;11.93;;;5.97;;
5121;SDS011;2563;52.242;7.956;2023-01-28T07:23:33;15.33;;;6.00;;
5121;SDS011;2563;52.242;7.956;2023-01-28T07:26:02;12.70;;;6.70;;
5121;SDS011;2563;52.242;7.956;2023-01-28T07:28:28;13.17;;;6.87;;
5121;SDS011;2563;52.242;7.956;2023-01-28T07:30:54;11.77;;;5.83;;
5121;SDS011;2563;52.242;7.956;2023-01-28T07:33:19;14.70;;;6.33;;
5121;SDS011;2563;52.242;7.956;2023-01-28T07:35:45;11.30;;;5.97;;
5121;SDS011;2563;52.242;7.956;2023-01-28T07:38:10;11.30;;;5.73;;
5121;SDS011;2563;52.242;7.956;2023-01-28T07:40:36;13.50;;;6.13;;
5121;SDS011;2563;52.242;7.956;2023-01-28T07:43:02;15.10;;;6.57;;
5121;SDS011;2563;52.242;7.956;2023-01-28T07:45:28;11.57;;;6.50;;
5121;SDS011;2563;52.242;7.956;2023-01-28T07:47:56;13.03;;;6.27;;
5121;SDS011;2563;52.242;7.956;2023-01-28T07:50:23;16.50;;;7.53;;
5121;SDS011;2563;52.242;7.956;2023-01-28T07:52:49;12.17;;;6.80;;
5121;SDS011;2563;52.242;7.956;2023-01-28T07:55:14;14.63;;;6.40;;
5121;SDS011;2563;52.242;7.956;2023-01-28T07:57:53;14.60;;;7.03;;
5121;SDS011;2563;52.242;7.956;2023-01-28T08:00:21;15.70;;;6.70;;
5121;SDS011;2563;52.242;7.956;2023-01-28T08:02:48;14.10;;;6.37;;
5121;SDS011;2563;52.242;7.956;2023-01-28T08:05:17;17.87;;;7.03;;
5121;SDS011;2563;52.242;7.956;2023-01-28T08:07:44;13.90;;;7.37;;
5121;SDS011;2563;52.242;7.956;2023-01-28T08:10:11;20.33;;;9.10;;
5121;SDS011;2563;52.242;7.956;2023-01-28T08:12:37;16.70;;;8.07;;
5121;SDS011;2563;52.242;7.956;2023-01-28T08:15:03;14.27;;;7.43;;
5121;SDS011;2563;52.242;7.956;2023-01-28T08:17:30;15.43;;;7.70;;
5121;SDS011;2563;52.242;7.956;2023-01-28T08:19:55;18.47;;;8.60;;
5121;SDS011;2563;52.242;7.956;2023-01-28T08:22:24;17.23;;;8.43;;
5121;SDS011;2563;52.242;7.956;2023-01-28T08:24:50;16.83;;;7.93;;
5121;SDS011;2563;52.242;7.956;2023-01-28T08:27:16;19.03;;;7.47;;
5121;SDS011;2563;52.242;7.956;2023-01-28T08:29:41;15.70;;;7.40;;
5121;SDS011;2563;52.242;7.956;2023-01-28T08:32:07;16.67;;;8.43;;
5121;SDS011;2563;52.242;7.956;2023-01-28T08:34:33;18.73;;;9.40;;
5121;SDS011;2563;52.242;7.956;2023-01-28T08:36:58;18.33;;;9.13;;
5121;SDS011;2563;52.242;7.956;2023-01-28T08:39:24;20.00;;;9.30;;
5121;SDS011;2563;52.242;7.956;2023-01-28T08:41:49;22.67;;;9.23;;
5121;SDS011;2563;52.242;7.956;2023-01-28T08:44:14;20.80;;;9.57;;
5121;SDS011;2563;52.242;7.956;2023-01-28T08:46:40;19.87;;;9.47;;
5121;SDS011;2563;52.242;7.956;2023-01-28T08:49:05;21.20;;;9.17;;
5121;SDS011;2563;52.242;7.956;2023-01-28T08:51:30;19.63;;;9.30;;
5121;SDS011;2563;52.242;7.956;2023-01-28T08:53:56;22.80;;;10.27;;
5121;SDS011;2563;52.242;7.956;2023-01-28T08:56:21;22.13;;;10.33;;
5121;SDS011;2563;52.242;7.956;2023-01-28T08:58:47;24.73;;;10.23;;
5121;SDS011;2563;52.242;7.956;2023-01-28T09:01:13;22.10;;;10.70;;
5121;SDS011;2563;52.242;7.956;2023-01-28T09:03:38;22.67;;;10.63;;
5121;SDS011;2563;52.242;7.956;2023-01-28T09:06:04;23.83;;;11.17;;
5121;SDS011;2563;52.242;7.956;2023-01-28T09:08:29;25.50;;;10.30;;
5121;SDS011;2563;52.242;7.956;2023-01-28T09:10:58;23.20;;;10.43;;
5121;SDS011;2563;52.242;7.956;2023-01-28T09:13:24;23.30;;;10.80;;
5121;SDS011;2563;52.242;7.956;2023-01-28T09:15:50;24.50;;;10.93;;
5121;SDS011;2563;52.242;7.956;2023-01-28T09:18:15;25.03;;;10.23;;
5121;SDS011;2563;52.242;7.956;2023-01-28T09:20:41;22.20;;;10.10;;
5121;SDS011;2563;52.242;7.956;2023-01-28T09:23:07;23.43;;;10.20;;
5121;SDS011;2563;52.242;7.956;2023-01-28T09:25:33;27.73;;;11.67;;
5121;SDS011;2563;52.242;7.956;2023-01-28T09:28:00;24.47;;;10.93;;
5121;SDS011;2563;52.242;7.956;2023-01-28T09:30:25;27.80;;;10.80;;
5121;SDS011;2563;52.242;7.956;2023-01-28T09:32:52;29.10;;;11.57;;
5121;SDS011;2563;52.242;7.956;2023-01-28T09:35:18;30.73;;;10.83;;
5121;SDS011;2563;52.242;7.956;2023-01-28T09:37:44;25.87;;;10.97;;
5121;SDS011;2563;52.242;7.956;2023-01-28T09:40:20;26.30;;;10.47;;
5121;SDS011;2563;52.242;7.956;2023-01-28T09:45:51;25.53;;;11.40;;
5121;SDS011;2563;52.242;7.956;2023-01-28T09:48:20;30.83;;;10.87;;
5121;SDS011;2563;52.242;7.956;2023-01-28T09:50:49;29.83;;;12.73;;
5121;SDS011;2563;52.242;7.956;2023-01-28T09:53:21;28.93;;;11.33;;
5121;SDS011;2563;52.242;7.956;2023-01-28T09:58:28;28.37;;;11.07;;
5121;SDS011;2563;52.242;7.956;2023-01-28T10:01:03;27.90;;;12.07;;
5121;SDS011;2563;52.242;7.956;2023-01-28T10:17:40;26.00;;;11.40;;
5121;SDS011;2563;52.242;7.956;2023-01-28T10:22:38;24.70;;;11.20;;
5121;SDS011;2563;52.242;7.956;2023-01-28T10:25:14;27.90;;;11.27;;
5121;SDS011;2563;52.242;7.956;2023-01-28T10:27:43;27.43;;;11.40;;
5121;SDS011;2563;52.242;7.956;2023-01-28T10:35:28;22.50;;;9.70;;
5121;SDS011;2563;52.242;7.956;2023-01-28T10:37:59;27.30;;;10.57;;
5121;SDS011;2563;52.242;7.956;2023-01-28T10:40:31;22.10;;;9.70;;
5121;SDS011;2563;52.242;7.956;2023-01-28T10:42:57;24.03;;;10.53;;
5121;SDS011;2563;52.242;7.956;2023-01-28T10:45:24;26.90;;;10.40;;
5121;SDS011;2563;52.242;7.956;2023-01-28T10:50:37;28.60;;;10.37;;
5121;SDS011;2563;52.242;7.956;2023-01-28T10:53:03;20.30;;;9.40;;
5121;SDS011;2563;52.242;7.956;2023-01-28T10:55:51;24.77;;;10.80;;
5121;SDS011;2563;52.242;7.956;2023-01-28T10:58:23;19.27;;;9.07;;
5121;SDS011;2563;52.242;7.956;2023-01-28T11:01:01;17.80;;;8.40;;
5121;SDS011;2563;52.242;7.956;2023-01-28T11:03:29;26.90;;;10.60;;
5121;SDS011;2563;52.242;7.956;2023-01-28T11:05:56;19.20;;;9.33;;
5121;SDS011;2563;52.242;7.956;2023-01-28T11:08:24;22.57;;;10.13;;
5121;SDS011;2563;52.242;7.956;2023-01-28T11:10:52;22.10;;;10.37;;
5121;SDS011;2563;52.242;7.956;2023-01-28T11:13:19;22.20;;;10.13;;
5121;SDS011;2563;52.242;7.956;2023-01-28T11:16:03;26.50;;;11.10;;
5121;SDS011;2563;52.242;7.956;2023-01-28T11:21:18;24.70;;;10.83;;
5121;SDS011;2563;52.242;7.956;2023-01-28T11:23:48;22.57;;;9.93;;
5121;SDS011;2563;52.242;7.956;2023-01-28T11:26:18;25.10;;;10.17;;
5121;SDS011;2563;52.242;7.956;2023-01-28T11:28:46;24.50;;;9.97;;
5121;SDS011;2563;52.242;7.956;2023-01-28T11:31:16;24.23;;;8.73;;
5121;SDS011;2563;52.242;7.956;2023-01-28T11:33:45;24.73;;;10.13;;
5121;SDS011;2563;52.242;7.956;2023-01-28T11:36:15;26.57;;;10.30;;
5121;SDS011;2563;52.242;7.956;2023-01-28T11:38:48;22.73;;;10.40;;
5121;SDS011;2563;52.242;7.956;2023-01-28T11:41:17;20.93;;;9.90;;
5121;SDS011;2563;52.242;7.956;2023-01-28T11:43:52;20.67;;;8.57;;
5121;SDS011;2563;52.242;7.956;2023-01-28T12:12:56;19.67;;;9.40;;
5121;SDS011;2563;52.242;7.956;2023-01-28T12:15:53;17.60;;;8.10;;
5121;SDS011;2563;52.242;7.956;2023-01-28T12:21:45;20.17;;;8.90;;
5121;SDS011;2563;52.242;7.956;2023-01-28T12:33:18;21.80;;;10.30;;
5121;SDS011;2563;52.242;7.956;2023-01-28T12:38:45;19.37;;;8.90;;
5121;SDS011;2563;52.242;7.956;2023-01-28T12:41:23;20.00;;;9.87;;
5121;SDS011;2563;52.242;7.956;2023-01-28T12:43:55;18.80;;;8.90;;
5121;SDS011;2563;52.242;7.956;2023-01-28T12:49:15;21.57;;;11.07;;
5121;SDS011;2563;52.242;7.956;2023-01-28T12:54:40;25.50;;;10.37;;
5121;SDS011;2563;52.242;7.956;2023-01-28T12:57:34;20.77;;;8.70;;
5121;SDS011;2563;52.242;7.956;2023-01-28T13:00:21;17.37;;;7.50;;
5121;SDS011;2563;52.242;7.956;2023-01-28T13:03:10;18.87;;;8.37;;
5121;SDS011;2563;52.242;7.956;2023-01-28T13:05:37;20.33;;;9.77;;
5121;SDS011;2563;52.242;7.956;2023-01-28T13:08:33;15.67;;;7.30;;
5121;SDS011;2563;52.242;7.956;2023-01-28T13:10:59;17.40;;;7.60;;
5121;SDS011;2563;52.242;7.956;2023-01-28T13:16:02;17.03;;;7.70;;
5121;SDS011;2563;52.242;7.956;2023-01-28T13:21:04;19.03;;;8.17;;
5121;SDS011;2563;52.242;7.956;2023-01-28T13:23:39;17.97;;;7.90;;
5121;SDS011;2563;52.242;7.956;2023-01-28T13:28:44;17.13;;;7.63;;
5121;SDS011;2563;52.242;7.956;2023-01-28T13:31:13;16.93;;;7.80;;
5121;SDS011;2563;52.242;7.956;2023-01-28T13:33:46;19.53;;;7.47;;
5121;SDS011;2563;52.242;7.956;2023-01-28T13:36:36;15.53;;;7.50;;
5121;SDS011;2563;52.242;7.956;2023-01-28T13:41:39;16.10;;;7.33;;
5121;SDS011;2563;52.242;7.956;2023-01-28T13:46:56;14.97;;;7.03;;
5121;SDS011;2563;52.242;7.956;2023-01-28T13:49:31;21.47;;;8.77;;
5121;SDS011;2563;52.242;7.956;2023-01-28T13:54:34;20.23;;;9.17;;
5121;SDS011;2563;52.242;7.956;2023-01-28T14:16:21;16.77;;;7.90;;
5121;SDS011;2563;52.242;7.956;2023-01-28T14:19:09;18.73;;;7.87;;
5121;SDS011;2563;52.242;7.956;2023-01-28T14:21:37;20.60;;;8.70;;
5121;SDS011;2563;52.242;7.956;2023-01-28T14:24:03;21.10;;;9.07;;
5121;SDS011;2563;52.242;7.956;2023-01-28T14:31:50;20.47;;;8.97;;
5121;SDS011;2563;52.242;7.956;2023-01-28T14:37:01;22.27;;;10.23;;
5121;SDS011;2563;52.242;7.956;2023-01-28T14:39:36;22.97;;;9.17;;
5121;SDS011;2563;52.242;7.956;2023-01-28T14:42:15;30.67;;;9.70;;
5121;SDS011;2563;52.242;7.956;2023-01-28T14:44:47;20.60;;;9.40;;
5121;SDS011;2563;52.242;7.956;2023-01-28T14:56:01;24.50;;;9.90;;
5121;SDS011;2563;52.242;7.956;2023-01-28T14:58:34;21.13;;;10.10;;
5121;SDS011;2563;52.242;7.956;2023-01-28T15:01:03;20.17;;;9.50;;
5121;SDS011;2563;52.242;7.956;2023-01-28T15:03:29;19.33;;;9.20;;
5121;SDS011;2563;52.242;7.956;2023-01-28T15:08:35;22.90;;;9.73;;
5121;SDS011;2563;52.242;7.956;2023-01-28T15:11:01;21.83;;;9.63;;
5121;SDS011;2563;52.242;7.956;2023-01-28T15:13:27;25.60;;;10.47;;
5121;SDS011;2563;52.242;7.956;2023-01-28T15:15:57;23.23;;;10.57;;
5121;SDS011;2563;52.242;7.956;2023-01-28T15:21:06;21.70;;;9.30;;
5121;SDS011;2563;52.242;7.956;2023-01-28T15:23:32;21.37;;;8.87;;
5121;SDS011;2563;52.242;7.956;2023-01-28T15:26:04;19.77;;;8.90;;
5121;SDS011;2563;52.242;7.956;2023-01-28T15:28:41;23.13;;;9.53;;
5121;SDS011;2563;52.242;7.956;2023-01-28T15:31:30;22.00;;;8.27;;
5121;SDS011;2563;52.242;7.956;2023-01-28T15:33:56;19.50;;;9.13;;
5121;SDS011;2563;52.242;7.956;2023-01-28T15:36:26;19.73;;;8.53;;
5121;SDS011;2563;52.242;7.956;2023-01-28T15:38:52;18.50;;;8.13;;
5121;SDS011;2563;52.242;7.956;2023-01-28T15:41:20;20.20;;;9.57;;
5121;SDS011;2563;52.242;7.956;2023-01-28T15:43:57;25.57;;;11.23;;
5121;SDS011;2563;52.242;7.956;2023-01-28T15:46:22;23.77;;;11.17;;
5121;SDS011;2563;52.242;7.956;2023-01-28T15:48:52;27.90;;;10.27;;
5121;SDS011;2563;52.242;7.956;2023-01-28T15:51:26;23.07;;;9.60;;
5121;SDS011;2563;52.242;7.956;2023-01-28T15:54:03;24.70;;;10.67;;
5121;SDS011;2563;52.242;7.956;2023-01-28T15:56:31;24.93;;;10.53;;
5121;SDS011;2563;52.242;7.956;2023-01-28T15:59:16;28.13;;;11.40;;
5121;SDS011;2563;52.242;7.956;2023-01-28T16:01:42;23.10;;;10.07;;
5121;SDS011;2563;52.242;7.956;2023-01-28T16:04:22;27.80;;;11.40;;
5121;SDS011;2563;52.242;7.956;2023-01-28T16:06:51;26.10;;;10.87;;
5121;SDS011;2563;52.242;7.956;2023-01-28T16:11:50;26.30;;;10.33;;
5121;SDS011;2563;52.242;7.956;2023-01-28T16:14:26;25.33;;;10.10;;
5121;SDS011;2563;52.242;7.956;2023-01-28T16:16:52;24.63;;;9.60;;
5121;SDS011;2563;52.242;7.956;2023-01-28T16:19:26;24.57;;;9.63;;
5121;SDS011;2563;52.242;7.956;2023-01-28T16:22:05;25.80;;;10.20;;
5121;SDS011;2563;52.242;7.956;2023-01-28T16:24:32;25.37;;;11.20;;
5121;SDS011;2563;52.242;7.956;2023-01-28T16:27:03;27.13;;;11.40;;
5121;SDS011;2563;52.242;7.956;2023-01-28T16:29:31;30.13;;;11.23;;
5121;SDS011;2563;52.242;7.956;2023-01-28T16:31:57;23.37;;;10.97;;
5121;SDS011;2563;52.242;7.956;2023-01-28T16:34:24;25.67;;;10.90;;
5121;SDS011;2563;52.242;7.956;2023-01-28T16:36:51;27.20;;;10.57;;
5121;SDS011;2563;52.242;7.956;2023-01-28T16:39:17;25.80;;;9.07;;
5121;SDS011;2563;52.242;7.956;2023-01-28T16:41:43;22.53;;;9.80;;
5121;SDS011;2563;52.242;7.956;2023-01-28T16:44:14;25.57;;;10.43;;
5121;SDS011;2563;52.242;7.956;2023-01-28T16:46:40;23.10;;;10.07;;
5121;SDS011;2563;52.242;7.956;2023-01-28T16:49:06;24.30;;;10.60;;
5121;SDS011;2563;52.242;7.956;2023-01-28T16:51:31;24.90;;;10.93;;
5121;SDS011;2563;52.242;7.956;2023-01-28T16:53:57;27.10;;;11.00;;
5121;SDS011;2563;52.242;7.956;2023-01-28T16:56:24;24.40;;;10.93;;
5121;SDS011;2563;52.242;7.956;2023-01-28T16:58:51;27.47;;;10.87;;
5121;SDS011;2563;52.242;7.956;2023-01-28T17:01:17;27.20;;;11.47;;
5121;SDS011;2563;52.242;7.956;2023-01-28T17:03:43;26.30;;;10.53;;
5121;SDS011;2563;52.242;7.956;2023-01-28T17:06:08;23.03;;;10.00;;
5121;SDS011;2563;52.242;7.956;2023-01-28T17:08:40;27.43;;;10.93;;
5121;SDS011;2563;52.242;7.956;2023-01-28T17:11:05;27.63;;;10.83;;
5121;SDS011;2563;52.242;7.956;2023-01-28T17:13:31;26.30;;;10.57;;
5121;SDS011;2563;52.242;7.956;2023-01-28T17:16:00;26.60;;;10.43;;
5121;SDS011;2563;52.242;7.956;2023-01-28T17:18:26;30.20;;;10.47;;
5121;SDS011;2563;52.242;7.956;2023-01-28T17:20:52;30.00;;;11.40;;
5121;SDS011;2563;52.242;7.956;2023-01-28T17:23:17;26.10;;;10.50;;
5121;SDS011;2563;52.242;7.956;2023-01-28T17:25:47;31.03;;;11.63;;
5121;SDS011;2563;52.242;7.956;2023-01-28T17:28:12;29.17;;;10.63;;
5121;SDS011;2563;52.242;7.956;2023-01-28T17:30:38;27.50;;;10.70;;
5121;SDS011;2563;52.242;7.956;2023-01-28T17:33:05;31.10;;;12.20;;
5121;SDS011;2563;52.242;7.956;2023-01-28T17:35:30;31.40;;;11.50;;
5121;SDS011;2563;52.242;7.956;2023-01-28T17:37:57;25.97;;;10.63;;
5121;SDS011;2563;52.242;7.956;2023-01-28T17:40:22;24.87;;;10.43;;
5121;SDS011;2563;52.242;7.956;2023-01-28T17:42:48;27.40;;;10.80;;
5121;SDS011;2563;52.242;7.956;2023-01-28T17:45:13;29.30;;;11.30;;
5121;SDS011;2563;52.242;7.956;2023-01-28T17:47:39;24.67;;;10.50;;
5121;SDS011;2563;52.242;7.956;2023-01-28T17:50:04;28.93;;;10.97;;
5121;SDS011;2563;52.242;7.956;2023-01-28T17:52:30;27.80;;;10.13;;
5121;SDS011;2563;52.242;7.956;2023-01-28T17:54:56;26.57;;;10.87;;
5121;SDS011;2563;52.242;7.956;2023-01-28T17:57:22;27.13;;;11.17;;
5121;SDS011;2563;52.242;7.956;2023-01-28T17:59:47;24.20;;;9.33;;